Time;durP1;ratioP1;P1;durP2;ratioP2;P2;SDS_P1;SDS_P2;PMS_P1;PMS_P2;Temp;Humidity;BMP_temperature;BMP_pressure;BME280_temperature;BME280_humidity;BME280_pressure;Samples;Min_cycle;Max_cycle;Signal;HPM_P1;HPM_P2
2023/07/10 00:00:19;;;;;;;27.73;21.60;;;;;;;22.93;100.00;-18642.72;5081606;28;20099;-76
2023/07/10 00:02:45;;;;;;;30.00;21.73;;;;;;;22.90;100.00;-18642.03;5080905;28;20050;-76
2023/07/10 00:05:18;;;;;;;27.52;21.80;;;;;;;22.87;100.00;-18641.09;5082465;28;20066;-76
2023/07/10 00:07:44;;;;;;;26.92;21.88;;;;;;;22.82;100.00;-18639.88;5072763;28;20562;-75
2023/07/10 00:10:14;;;;;;;24.40;20.40;;;;;;;22.79;100.00;-18639.06;5080582;28;20125;-76
2023/07/10 00:12:42;;;;;;;25.77;20.92;;;;;;;22.95;100.00;-18643.41;5076398;28;20410;-74
2023/07/10 00:15:18;;;;;;;28.85;21.83;;;;;;;22.83;100.00;-18640.13;5078789;28;20044;-76
2023/07/10 00:17:45;;;;;;;27.88;21.80;;;;;;;22.91;100.00;-18642.19;5078970;28;20044;-75
2023/07/10 00:20:17;;;;;;;30.02;22.10;;;;;;;23.06;100.00;-18646.25;5074566;28;20084;-76
2023/07/10 00:22:42;;;;;;;29.10;22.48;;;;;;;22.99;100.00;-18644.34;5079234;28;20040;-75
2023/07/10 00:25:09;;;;;;;28.23;23.13;;;;;;;22.97;100.00;-18643.94;5080119;28;20653;-76
2023/07/10 00:27:34;;;;;;;28.13;23.08;;;;;;;23.08;100.00;-18646.78;5079444;28;20048;-76
2023/07/10 00:29:59;;;;;;;30.73;24.13;;;;;;;23.10;100.00;-18647.34;5081376;28;20040;-76
2023/07/10 00:32:25;;;;;;;30.67;23.40;;;;;;;23.23;100.00;-18650.59;5083095;28;20043;-77
2023/07/10 00:34:50;;;;;;;32.42;24.95;;;;;;;23.04;100.00;-18645.72;5068594;28;20055;-77
2023/07/10 00:37:15;;;;;;;33.00;26.52;;;;;;;22.90;100.00;-18642.03;5083419;28;20036;-76
2023/07/10 00:39:43;;;;;;;34.08;26.23;;;;;;;22.84;100.00;-18640.28;5081864;28;20043;-76
2023/07/10 00:42:16;;;;;;;30.98;25.35;;;;;;;22.95;100.00;-18643.41;5065330;28;20036;-77
2023/07/10 00:44:48;;;;;;;31.95;24.70;;;;;;;22.87;100.00;-18641.22;5080921;28;20044;-75
2023/07/10 00:47:25;;;;;;;32.47;25.33;;;;;;;22.61;100.00;-18634.31;5071656;28;20540;-76
2023/07/10 00:50:13;;;;;;;32.63;23.13;;;;;;;22.67;100.00;-18635.94;5081085;28;20134;-76
2023/07/10 00:52:43;;;;;;;31.55;25.58;;;;;;;22.71;100.00;-18637.03;5077244;28;20047;-76
2023/07/10 00:55:33;;;;;;;36.42;27.55;;;;;;;22.73;100.00;-18637.56;5077639;28;20044;-76
2023/07/10 00:58:30;;;;;;;32.80;25.30;;;;;;;22.82;100.00;-18639.88;5065218;28;20174;-76
2023/07/10 01:01:07;;;;;;;29.63;23.95;;;;;;;22.86;100.00;-18640.81;5061648;28;20095;-75
2023/07/10 01:03:33;;;;;;;30.90;25.00;;;;;;;22.88;100.00;-18641.50;5081543;28;20111;-75
2023/07/10 01:06:06;;;;;;;32.47;24.38;;;;;;;22.94;100.00;-18643.00;5082328;28;20036;-76
2023/07/10 01:08:31;;;;;;;33.05;24.77;;;;;;;22.94;100.00;-18643.00;5058976;28;20052;-75
2023/07/10 01:10:57;;;;;;;29.52;22.90;;;;;;;23.06;100.00;-18646.25;5081758;28;20038;-76
2023/07/10 01:13:22;;;;;;;35.72;25.38;;;;;;;23.02;100.00;-18645.16;5080068;28;20036;-75
2023/07/10 01:15:48;;;;;;;30.02;25.38;;;;;;;23.11;100.00;-18647.59;5082055;28;20035;-76
2023/07/10 01:18:14;;;;;;;32.10;24.90;;;;;;;23.15;100.00;-18648.69;5081859;28;20040;-76
2023/07/10 01:20:43;;;;;;;35.58;25.58;;;;;;;23.10;100.00;-18647.34;5080750;28;20040;-75
2023/07/10 01:23:09;;;;;;;32.10;24.95;;;;;;;23.19;100.00;-18649.78;5082243;28;20075;-76
2023/07/10 01:25:58;;;;;;;33.63;24.75;;;;;;;23.21;100.00;-18650.19;5078279;28;20057;-74
2023/07/10 01:28:24;;;;;;;32.42;24.55;;;;;;;23.23;100.00;-18650.72;5073312;28;20616;-76
2023/07/10 01:30:53;;;;;;;33.13;25.38;;;;;;;23.15;100.00;-18648.69;5080695;28;20044;-75
2023/07/10 01:33:25;;;;;;;33.15;25.08;;;;;;;23.17;100.00;-18649.09;5080843;28;20081;-77
2023/07/10 01:35:54;;;;;;;34.92;26.83;;;;;;;23.42;100.00;-18655.75;5081229;28;20047;-76
2023/07/10 01:38:20;;;;;;;34.17;26.00;;;;;;;23.46;100.00;-18656.69;5061208;28;20508;-76
2023/07/10 01:40:53;;;;;;;29.60;24.20;;;;;;;23.54;100.00;-18658.88;5062134;28;20051;-76
2023/07/10 01:43:18;;;;;;;32.22;25.40;;;;;;;23.48;100.00;-18657.38;5081344;28;20071;-76
2023/07/10 01:45:47;;;;;;;32.80;25.13;;;;;;;23.53;100.00;-18658.59;5079912;28;20048;-76
2023/07/10 01:48:16;;;;;;;34.35;25.92;;;;;;;23.27;100.00;-18651.81;5077666;28;20036;-76
2023/07/10 01:50:42;;;;;;;34.35;25.88;;;;;;;23.28;100.00;-18651.94;5079360;28;20052;-76
2023/07/10 01:53:09;;;;;;;32.70;25.10;;;;;;;23.42;100.00;-18655.88;5062279;28;20489;-76
2023/07/10 01:55:43;;;;;;;37.65;26.25;;;;;;;23.47;100.00;-18657.09;5078028;28;20060;-76
2023/07/10 01:58:12;;;;;;;31.77;25.27;;;;;;;23.30;100.00;-18652.63;5060002;28;20071;-76
2023/07/10 02:00:40;;;;;;;34.80;26.15;;;;;;;23.28;100.00;-18652.09;5073522;28;20040;-76
2023/07/10 02:03:05;;;;;;;35.20;26.95;;;;;;;23.49;100.00;-18657.66;5073499;28;20051;-75
2023/07/10 02:05:30;;;;;;;33.47;26.33;;;;;;;23.55;100.00;-18659.28;5069308;28;20052;-75
2023/07/10 02:07:56;;;;;;;38.20;27.10;;;;;;;23.60;100.00;-18660.63;5080823;28;20411;-75
2023/07/10 02:10:21;;;;;;;34.42;26.70;;;;;;;23.57;100.00;-18659.69;5080766;28;20050;-76
2023/07/10 02:12:46;;;;;;;36.47;27.05;;;;;;;23.46;100.00;-18656.84;5079101;28;20109;-75
2023/07/10 02:15:12;;;;;;;36.00;27.00;;;;;;;23.34;100.00;-18653.72;5060423;28;20040;-76
2023/07/10 02:17:37;;;;;;;36.13;25.90;;;;;;;23.17;100.00;-18649.25;5077297;28;20127;-75
2023/07/10 02:20:03;;;;;;;36.47;27.52;;;;;;;23.17;100.00;-18649.09;5058949;28;20051;-75
2023/07/10 02:22:28;;;;;;;37.38;28.23;;;;;;;23.19;100.00;-18649.66;5078941;28;20403;-76
2023/07/10 02:24:54;;;;;;;35.05;27.40;;;;;;;23.22;100.00;-18650.47;5078555;28;20464;-76
2023/07/10 02:27:19;;;;;;;40.00;28.38;;;;;;;23.22;100.00;-18650.47;5070017;28;20032;-75
2023/07/10 02:29:44;;;;;;;37.83;27.33;;;;;;;23.29;100.00;-18652.22;5074828;28;20041;-76
2023/07/10 02:32:10;;;;;;;36.50;27.88;;;;;;;23.12;100.00;-18647.88;5062051;28;20039;-76
2023/07/10 02:34:36;;;;;;;35.45;26.40;;;;;;;23.03;100.00;-18645.44;5065716;28;20047;-76
2023/07/10 02:37:01;;;;;;;34.38;27.50;;;;;;;23.17;100.00;-18649.25;5067813;28;20056;-75
2023/07/10 02:39:27;;;;;;;40.40;27.60;;;;;;;23.06;100.00;-18646.13;5084862;28;20071;-75
2023/07/10 02:41:52;;;;;;;37.90;27.45;;;;;;;23.08;100.00;-18646.66;5083998;28;20629;-76
2023/07/10 02:44:17;;;;;;;37.10;27.17;;;;;;;22.94;100.00;-18643.13;5083613;28;20044;-75
2023/07/10 02:46:43;;;;;;;34.88;25.40;;;;;;;22.89;100.00;-18641.63;5083043;28;20093;-76
2023/07/10 02:49:08;;;;;;;38.13;26.85;;;;;;;22.96;100.00;-18643.53;5084104;28;20043;-76
2023/07/10 02:51:33;;;;;;;36.38;27.38;;;;;;;23.05;100.00;-18645.84;5080974;28;20055;-76
2023/07/10 02:54:07;;;;;;;35.45;27.33;;;;;;;22.98;100.00;-18644.06;5079137;28;20039;-76
2023/07/10 02:56:32;;;;;;;36.80;26.10;;;;;;;22.96;100.00;-18643.69;5080202;28;20095;-76
2023/07/10 02:58:57;;;;;;;38.83;27.52;;;;;;;22.97;100.00;-18643.81;5085266;28;20402;-76
2023/07/10 03:01:26;;;;;;;36.80;27.35;;;;;;;23.18;100.00;-18649.38;5080445;28;20102;-76
2023/07/10 03:03:51;;;;;;;34.28;26.20;;;;;;;22.91;100.00;-18642.31;5079890;28;20052;-76
2023/07/10 03:06:16;;;;;;;33.17;26.35;;;;;;;22.80;100.00;-18639.19;5079183;28;20051;-76
2023/07/10 03:08:43;;;;;;;36.83;27.33;;;;;;;22.78;100.00;-18638.78;5082427;28;20036;-75
2023/07/10 03:11:12;;;;;;;38.08;27.30;;;;;;;22.59;100.00;-18633.63;5082616;28;20039;-76
2023/07/10 03:13:37;;;;;;;;;;;;;;;23.08;100.00;-18646.78;5083175;28;20055;-76
2023/07/10 03:16:09;;;;;;;35.97;27.60;;;;;;;23.07;100.00;-18646.53;5083120;28;19916;-75
2023/07/10 03:18:35;;;;;;;38.03;26.75;;;;;;;23.10;100.00;-18647.19;5078644;28;20784;-76
2023/07/10 03:21:00;;;;;;;33.13;27.35;;;;;;;22.84;100.00;-18640.28;5079965;28;20040;-76
2023/07/10 03:23:26;;;;;;;39.40;27.73;;;;;;;22.80;100.00;-18639.19;5079012;28;20123;-75
2023/07/10 03:25:51;;;;;;;40.50;28.38;;;;;;;22.93;100.00;-18642.72;5081733;28;20043;-76
2023/07/10 03:28:16;;;;;;;36.20;28.00;;;;;;;23.16;100.00;-18648.81;5066643;28;20050;-75
2023/07/10 03:30:42;;;;;;;37.83;27.52;;;;;;;23.23;100.00;-18650.59;5076015;28;20565;-76
2023/07/10 03:33:11;;;;;;;39.22;28.13;;;;;;;23.17;100.00;-18649.25;5080526;28;20111;-77
2023/07/10 03:35:37;;;;;;;40.28;28.88;;;;;;;23.17;100.00;-18649.25;5080010;28;20051;-75
2023/07/10 03:38:02;;;;;;;35.75;27.02;;;;;;;23.14;100.00;-18648.41;5083727;28;20457;-77
2023/07/10 03:40:27;;;;;;;33.45;26.27;;;;;;;23.21;100.00;-18650.19;5082699;28;20040;-74
2023/07/10 03:42:53;;;;;;;35.42;24.60;;;;;;;23.12;100.00;-18647.75;5083176;28;20044;-77
2023/07/10 03:45:18;;;;;;;37.33;27.50;;;;;;;23.12;100.00;-18647.75;5078344;28;20127;-77
2023/07/10 03:47:43;;;;;;;35.08;26.88;;;;;;;22.79;100.00;-18638.91;5061999;28;20578;-76
2023/07/10 03:50:09;;;;;;;41.80;25.58;;;;;;;22.86;100.00;-18640.94;5083223;28;20430;-76
2023/07/10 03:52:35;;;;;;;34.75;26.67;;;;;;;22.70;100.00;-18636.75;5080832;28;20177;-75
2023/07/10 03:55:00;;;;;;;35.47;25.73;;;;;;;22.72;100.00;-18637.16;5079153;28;20391;-76
2023/07/10 03:57:26;;;;;;;32.53;24.70;;;;;;;22.86;100.00;-18640.81;5083931;28;20040;-76
2023/07/10 03:59:52;;;;;;;34.05;23.77;;;;;;;22.82;100.00;-18639.88;5081898;28;20056;-75
2023/07/10 04:02:17;;;;;;;32.45;23.85;;;;;;;22.84;100.00;-18640.41;5075115;28;20055;-76
2023/07/10 04:04:43;;;;;;;33.25;21.77;;;;;;;22.84;100.00;-18640.28;5067362;28;20052;-75
2023/07/10 04:07:08;;;;;;;32.85;22.88;;;;;;;22.91;100.00;-18642.19;5078160;28;20064;-76
2023/07/10 04:09:33;;;;;;;36.53;23.45;;;;;;;22.98;100.00;-18644.22;5081757;28;20425;-76
2023/07/10 04:11:59;;;;;;;31.20;24.05;;;;;;;23.00;100.00;-18644.50;5079759;28;20044;-77
2023/07/10 04:14:24;;;;;;;26.50;20.88;;;;;;;22.90;100.00;-18641.91;5073491;28;20044;-75
2023/07/10 04:16:52;;;;;;;33.40;20.33;;;;;;;22.92;100.00;-18642.44;5064571;28;20523;-77
2023/07/10 04:19:19;;;;;;;25.70;20.02;;;;;;;23.09;100.00;-18646.94;5076457;28;20719;-75
2023/07/10 04:21:44;;;;;;;27.42;20.65;;;;;;;23.11;100.00;-18647.59;5079580;28;20105;-76
2023/07/10 04:24:10;;;;;;;24.77;19.48;;;;;;;22.96;100.00;-18643.53;5081029;28;20044;-75
2023/07/10 04:26:35;;;;;;;22.85;17.95;;;;;;;22.93;100.00;-18642.72;5062062;28;20040;-76
2023/07/10 04:29:06;;;;;;;23.60;16.55;;;;;;;23.16;100.00;-18648.81;5084153;28;20044;-76
2023/07/10 04:31:32;;;;;;;27.27;19.63;;;;;;;23.22;100.00;-18650.31;5080088;28;20036;-76
2023/07/10 04:33:59;;;;;;;24.20;16.73;;;;;;;23.33;100.00;-18653.44;5078929;28;20047;-76
2023/07/10 04:36:25;;;;;;;22.55;18.75;;;;;;;23.51;100.00;-18658.06;5078256;28;20064;-77
2023/07/10 04:38:50;;;;;;;25.10;15.95;;;;;;;23.26;100.00;-18651.41;5080637;28;20728;-76
2023/07/10 04:41:19;;;;;;;21.85;16.65;;;;;;;23.46;100.00;-18656.84;5079307;28;20065;-77
2023/07/10 04:43:44;;;;;;;20.13;15.85;;;;;;;23.41;100.00;-18655.59;5075661;28;20069;-76
2023/07/10 04:46:15;;;;;;;23.13;15.05;;;;;;;23.40;100.00;-18655.34;5083343;28;20064;-77
2023/07/10 04:48:42;;;;;;;26.42;15.00;;;;;;;23.45;100.00;-18656.56;5080101;28;20048;-76
2023/07/10 04:51:09;;;;;;;22.33;16.05;;;;;;;23.08;100.00;-18646.78;5083062;28;20040;-76
2023/07/10 04:53:35;;;;;;;22.33;15.38;;;;;;;23.10;100.00;-18647.34;5076558;28;20059;-76
2023/07/10 04:56:02;;;;;;;20.33;15.70;;;;;;;23.16;100.00;-18648.97;5076527;28;20406;-76
2023/07/10 04:58:28;;;;;;;21.35;14.63;;;;;;;23.01;100.00;-18644.75;5080608;28;20038;-77
2023/07/10 05:00:57;;;;;;;19.70;15.10;;;;;;;23.01;100.00;-18644.91;5073603;28;20450;-77
2023/07/10 05:03:23;;;;;;;21.07;14.47;;;;;;;23.05;100.00;-18645.97;5075650;28;20040;-76
2023/07/10 05:05:52;;;;;;;18.23;13.73;;;;;;;22.89;100.00;-18641.78;5063647;28;20502;-77
2023/07/10 05:08:17;;;;;;;19.08;14.07;;;;;;;22.88;100.00;-18641.50;5082398;28;20044;-77
2023/07/10 05:10:43;;;;;;;19.15;14.30;;;;;;;22.93;100.00;-18642.84;5077303;28;20090;-76
2023/07/10 05:13:09;;;;;;;20.17;14.30;;;;;;;23.05;100.00;-18645.97;5082621;28;20047;-77
2023/07/10 05:15:34;;;;;;;23.30;14.05;;;;;;;23.01;100.00;-18644.75;5080588;28;20464;-76
2023/07/10 05:17:59;;;;;;;20.80;14.23;;;;;;;22.94;100.00;-18643.00;5082546;28;20297;-76
2023/07/10 05:20:25;;;;;;;19.85;15.40;;;;;;;22.92;100.00;-18642.44;5082287;28;20119;-76
2023/07/10 05:22:50;;;;;;;19.42;13.65;;;;;;;22.83;100.00;-18640.00;5080703;28;20044;-76
2023/07/10 05:25:15;;;;;;;18.85;14.00;;;;;;;22.84;100.00;-18640.28;5073369;28;20067;-76
2023/07/10 05:27:41;;;;;;;17.67;11.88;;;;;;;22.85;100.00;-18640.69;5077785;28;20438;-76
2023/07/10 05:30:08;;;;;;;17.02;12.02;;;;;;;22.60;100.00;-18634.03;5075866;28;20049;-76
2023/07/10 05:32:33;;;;;;;15.13;11.20;;;;;;;22.60;100.00;-18634.03;5080361;28;20108;-76
2023/07/10 05:34:59;;;;;;;18.10;12.35;;;;;;;22.75;100.00;-18637.97;5074353;28;20483;-77
2023/07/10 05:37:26;;;;;;;18.02;12.02;;;;;;;22.78;100.00;-18638.66;5074865;28;20059;-77
2023/07/10 05:39:51;;;;;;;17.20;9.75;;;;;;;22.67;100.00;-18635.94;5081952;28;20616;-76
2023/07/10 05:42:17;;;;;;;14.95;10.32;;;;;;;22.80;100.00;-18639.31;5082552;28;20076;-77
2023/07/10 05:44:42;;;;;;;13.65;10.48;;;;;;;22.77;100.00;-18638.38;5074829;28;20133;-77
2023/07/10 05:47:08;;;;;;;11.63;8.40;;;;;;;22.66;100.00;-18635.53;5072999;28;20054;-75
2023/07/10 05:49:33;;;;;;;15.30;8.43;;;;;;;22.61;100.00;-18634.31;5077561;28;20060;-74
2023/07/10 05:51:58;;;;;;;12.40;7.30;;;;;;;22.68;100.00;-18636.19;5073424;28;20047;-76
2023/07/10 05:54:24;;;;;;;10.43;7.60;;;;;;;22.80;100.00;-18639.19;5078251;28;20036;-76
2023/07/10 05:56:49;;;;;;;9.02;7.20;;;;;;;22.86;100.00;-18640.94;5079125;28;20044;-76
2023/07/10 05:59:15;;;;;;;11.32;7.38;;;;;;;22.90;100.00;-18641.91;5080751;28;20656;-76
2023/07/10 06:01:40;;;;;;;9.45;6.97;;;;;;;22.77;100.00;-18638.38;5061836;28;20481;-75
2023/07/10 06:04:06;;;;;;;11.07;6.90;;;;;;;22.83;100.00;-18640.13;5080164;28;20051;-76
2023/07/10 06:06:32;;;;;;;11.32;6.78;;;;;;;22.92;100.00;-18642.44;5072075;28;20037;-76
2023/07/10 06:08:57;;;;;;;9.90;7.72;;;;;;;22.94;100.00;-18643.13;5074166;28;20090;-73
2023/07/10 06:11:22;;;;;;;11.65;7.95;;;;;;;22.83;100.00;-18640.00;5089326;28;20051;-75
2023/07/10 06:13:48;;;;;;;11.80;9.20;;;;;;;22.85;100.00;-18640.69;5080886;28;20043;-76
2023/07/10 06:16:14;;;;;;;12.82;8.77;;;;;;;22.88;100.00;-18641.50;5079522;28;20165;-77
2023/07/10 06:18:40;;;;;;;15.65;8.90;;;;;;;22.90;100.00;-18641.91;5070564;28;20124;-76
2023/07/10 06:21:06;;;;;;;14.38;9.55;;;;;;;22.86;100.00;-18640.94;5081464;28;20041;-75
2023/07/10 06:23:32;;;;;;;15.55;9.38;;;;;;;22.71;100.00;-18636.88;5084596;28;20032;-76
2023/07/10 06:26:01;;;;;;;13.73;8.95;;;;;;;22.83;100.00;-18640.00;5077954;28;20040;-74
2023/07/10 06:28:28;;;;;;;13.30;7.90;;;;;;;22.71;100.00;-18636.88;5084834;28;20071;-76
2023/07/10 06:30:58;;;;;;;10.73;6.97;;;;;;;22.78;100.00;-18638.66;5084969;28;20040;-75
2023/07/10 06:33:23;;;;;;;13.10;7.35;;;;;;;22.78;100.00;-18638.66;5079660;28;20048;-74
2023/07/10 06:35:49;;;;;;;10.15;6.18;;;;;;;22.70;100.00;-18636.59;5081884;28;20101;-74
2023/07/10 06:38:14;;;;;;;12.23;6.88;;;;;;;22.84;100.00;-18640.41;5063028;28;20127;-76
2023/07/10 06:40:40;;;;;;;9.48;6.10;;;;;;;22.84;100.00;-18640.41;5072109;28;20450;-75
2023/07/10 06:43:06;;;;;;;11.25;6.05;;;;;;;22.79;100.00;-18639.06;5081056;28;20040;-75
2023/07/10 06:45:31;;;;;;;10.40;5.68;;;;;;;23.06;100.00;-18646.25;5072208;28;20032;-77
2023/07/10 06:47:56;;;;;;;8.05;4.90;;;;;;;23.05;100.00;-18645.84;5078795;28;20043;-76
2023/07/10 06:50:22;;;;;;;7.68;4.45;;;;;;;22.83;100.00;-18640.00;5076349;28;20513;-76
2023/07/10 06:52:47;;;;;;;8.18;4.93;;;;;;;22.92;100.00;-18642.44;5080532;28;20125;-77
2023/07/10 06:55:17;;;;;;;7.00;3.83;;;;;;;22.70;100.00;-18636.59;5074803;28;20645;-76
2023/07/10 06:57:43;;;;;;;7.95;3.30;;;;;;;22.68;100.00;-18636.06;5084155;28;20047;-76
2023/07/10 07:00:11;;;;;;;8.27;3.80;;;;;;;22.72;100.00;-18637.28;5086869;28;20067;-76
2023/07/10 07:02:37;;;;;;;9.68;3.55;;;;;;;22.71;100.00;-18636.88;5077895;28;20037;-76
2023/07/10 07:05:04;;;;;;;7.47;3.53;;;;;;;22.87;100.00;-18641.09;5079967;28;20041;-76
2023/07/10 07:07:30;;;;;;;7.22;3.33;;;;;;;23.01;100.00;-18644.75;5075058;28;20038;-74
2023/07/10 07:09:55;;;;;;;7.60;3.28;;;;;;;23.11;100.00;-18647.47;5080905;28;20404;-77
2023/07/10 07:12:20;;;;;;;6.07;2.95;;;;;;;23.15;100.00;-18648.56;5078929;28;20036;-74
2023/07/10 07:14:49;;;;;;;6.80;3.20;;;;;;;23.26;100.00;-18651.41;5073432;28;20043;-75
2023/07/10 07:17:14;;;;;;;6.57;2.97;;;;;;;23.31;100.00;-18652.91;5080518;28;20132;-75
2023/07/10 07:19:42;;;;;;;6.35;2.72;;;;;;;23.47;100.00;-18657.09;5063259;28;20078;-76
2023/07/10 07:22:07;;;;;;;6.65;3.33;;;;;;;23.52;100.00;-18658.31;5077827;28;20045;-76
2023/07/10 07:24:36;;;;;;;4.63;2.40;;;;;;;23.56;100.00;-18659.41;5074281;28;20043;-76
2023/07/10 07:27:05;;;;;;;5.65;2.47;;;;;;;23.63;100.00;-18661.44;5079511;28;20201;-76
2023/07/10 07:29:30;;;;;;;5.00;3.05;;;;;;;23.81;100.00;-18666.06;5076193;28;20046;-75
2023/07/10 07:31:56;;;;;;;6.53;2.55;;;;;;;23.89;100.00;-18668.22;5055862;28;20040;-76
2023/07/10 07:34:22;;;;;;;6.95;2.20;;;;;;;23.89;100.00;-18668.09;5082407;28;20040;-76
2023/07/10 07:36:52;;;;;;;6.68;3.13;;;;;;;23.92;100.00;-18669.03;5074604;28;20498;-76
2023/07/10 07:39:20;;;;;;;5.97;2.33;;;;;;;24.05;100.00;-18672.44;5079212;28;20101;-75
2023/07/10 07:41:45;;;;;;;7.20;2.65;;;;;;;24.05;100.00;-18672.56;5076324;28;20043;-76
2023/07/10 07:44:11;;;;;;;6.10;2.60;;;;;;;24.07;100.00;-18673.09;5080460;28;20044;-75
2023/07/10 07:46:48;;;;;;;10.20;2.75;;;;;;;24.25;100.00;-18677.84;5081068;28;20040;-75
2023/07/10 07:49:13;;;;;;;4.78;2.20;;;;;;;24.01;100.00;-18671.47;5082935;28;20047;-75
2023/07/10 07:51:39;;;;;;;6.63;2.47;;;;;;;23.97;100.00;-18670.41;5073466;28;20040;-76
2023/07/10 07:54:10;;;;;;;5.57;2.63;;;;;;;24.13;100.00;-18674.59;5073599;28;20537;-76
2023/07/10 07:56:35;;;;;;;5.82;2.83;;;;;;;24.12;100.00;-18674.31;5081278;28;20047;-75
2023/07/10 07:59:01;;;;;;;6.63;2.60;;;;;;;24.13;100.00;-18674.47;5082829;28;20032;-76
2023/07/10 08:01:27;;;;;;;6.45;2.03;;;;;;;23.98;100.00;-18670.66;5076908;28;20119;-77
2023/07/10 08:03:56;;;;;;;4.93;2.22;;;;;;;24.25;100.00;-18677.84;5068458;28;20497;-77
2023/07/10 08:06:28;;;;;;;6.30;2.13;;;;;;;24.14;100.00;-18674.72;5082137;28;20032;-75
2023/07/10 08:08:53;;;;;;;6.18;2.30;;;;;;;24.37;100.00;-18680.97;5082099;28;20514;-76
2023/07/10 08:11:20;;;;;;;8.02;2.28;;;;;;;24.22;99.38;-18676.91;5078829;28;20039;-76
2023/07/10 08:13:45;;;;;;;5.68;2.05;;;;;;;24.29;97.21;-18678.78;5079153;28;20037;-77
2023/07/10 08:16:11;;;;;;;4.03;2.10;;;;;;;24.52;97.62;-18685.03;5083904;28;20557;-77
2023/07/10 08:18:36;;;;;;;5.25;2.10;;;;;;;24.67;96.24;-18688.81;5075721;28;20074;-75
2023/07/10 08:21:03;;;;;;;4.13;1.60;;;;;;;24.64;98.58;-18688.16;5081118;28;20377;-75
2023/07/10 08:23:29;;;;;;;5.55;1.90;;;;;;;24.94;97.42;-18696.13;5078512;28;20043;-75
2023/07/10 08:25:54;;;;;;;4.90;2.10;;;;;;;24.87;91.72;-18694.25;5079069;28;20040;-76
2023/07/10 08:28:20;;;;;;;4.40;1.85;;;;;;;24.93;94.22;-18695.88;5078891;28;20045;-75
2023/07/10 08:30:45;;;;;;;6.40;2.03;;;;;;;25.05;91.80;-18698.84;5083706;28;20043;-76
2023/07/10 08:33:11;;;;;;;6.05;1.58;;;;;;;25.43;90.41;-18709.13;5076101;28;20059;-76
2023/07/10 08:35:36;;;;;;;5.18;1.27;;;;;;;25.25;81.19;-18704.25;5075948;28;20523;-76
2023/07/10 08:38:02;;;;;;;5.32;1.40;;;;;;;25.30;76.61;-18705.47;5081481;28;20044;-76
2023/07/10 08:40:31;;;;;;;5.22;1.77;;;;;;;25.48;79.28;-18710.22;5070417;28;20082;-76
2023/07/10 08:42:59;;;;;;;4.97;1.77;;;;;;;25.71;81.45;-18716.31;5058953;28;20047;-76
2023/07/10 08:45:33;;;;;;;4.20;1.50;;;;;;;25.87;78.42;-18720.78;5069958;28;20028;-76
2023/07/10 08:48:35;;;;;;;4.65;1.58;;;;;;;25.92;77.26;-18722.00;5077703;28;20036;-76
2023/07/10 08:51:35;;;;;;;4.75;1.27;;;;;;;25.78;75.36;-18718.19;5074210;28;20105;-76
2023/07/10 08:54:04;;;;;;;4.20;1.20;;;;;;;25.86;73.92;-18720.50;5052427;28;20032;-76
2023/07/10 08:56:34;;;;;;;5.28;1.33;;;;;;;25.69;76.70;-18715.91;5074039;28;20044;-76
2023/07/10 08:59:15;;;;;;;4.57;1.15;;;;;;;25.80;72.73;-18718.88;5074994;28;20040;-76
2023/07/10 09:01:44;;;;;;;4.05;1.27;;;;;;;25.86;66.44;-18720.50;5078100;28;20051;-76
2023/07/10 09:04:16;;;;;;;6.55;1.30;;;;;;;25.97;70.16;-18723.22;5075510;28;20070;-76
2023/07/10 09:06:49;;;;;;;3.53;1.25;;;;;;;25.95;62.80;-18722.66;5076806;28;20533;-75
2023/07/10 09:09:26;;;;;;;5.50;1.52;;;;;;;26.05;64.80;-18725.50;5071486;28;20372;-75
2023/07/10 09:11:52;;;;;;;3.08;1.40;;;;;;;26.14;66.43;-18727.66;5066269;28;20131;-76
2023/07/10 09:14:23;;;;;;;2.85;1.05;;;;;;;26.23;64.03;-18730.25;5077750;28;20036;-76
2023/07/10 09:16:52;;;;;;;3.85;1.25;;;;;;;26.31;63.92;-18732.41;5068542;28;20044;-76
2023/07/10 09:19:19;;;;;;;2.97;1.30;;;;;;;26.29;65.70;-18731.72;5082506;28;20032;-76
2023/07/10 09:21:45;;;;;;;4.00;1.10;;;;;;;26.29;64.85;-18731.84;5064507;28;20464;-76
2023/07/10 09:24:17;;;;;;;7.15;1.88;;;;;;;26.47;67.58;-18736.44;5075686;28;20044;-76
2023/07/10 09:26:43;;;;;;;4.45;1.02;;;;;;;26.60;63.78;-18739.97;5057484;28;20040;-75
2023/07/10 09:29:11;;;;;;;4.13;1.20;;;;;;;26.81;63.61;-18745.50;5073889;28;20555;-75
2023/07/10 09:31:50;;;;;;;3.17;1.13;;;;;;;26.81;60.48;-18745.38;5074564;28;20047;-76
2023/07/10 09:34:20;;;;;;;4.78;1.33;;;;;;;26.76;61.38;-18744.16;5076928;28;20041;-75
2023/07/10 09:36:51;;;;;;;6.13;1.48;;;;;;;26.80;62.25;-18745.25;5076459;28;20039;-75
2023/07/10 09:39:16;;;;;;;3.95;1.20;;;;;;;26.86;60.90;-18746.72;5081677;28;20055;-76
2023/07/10 09:41:43;;;;;;;5.38;1.33;;;;;;;26.82;61.50;-18745.66;5081726;28;20128;-76
2023/07/10 09:44:15;;;;;;;5.13;1.65;;;;;;;27.07;62.71;-18752.41;5063189;28;20220;-77
2023/07/10 09:46:40;;;;;;;3.45;1.40;;;;;;;27.01;64.54;-18750.91;5075987;28;20045;-77
2023/07/10 09:49:19;;;;;;;4.93;1.55;;;;;;;27.13;61.01;-18754.03;5080009;28;20036;-77
2023/07/10 09:52:00;;;;;;;5.90;1.45;;;;;;;27.10;59.53;-18753.22;5051192;28;20060;-77
2023/07/10 09:54:35;;;;;;;4.18;1.10;;;;;;;26.85;56.41;-18746.59;5070644;28;20118;-77
2023/07/10 09:57:03;;;;;;;4.78;1.23;;;;;;;26.95;54.46;-18749.28;5068004;28;20123;-77
2023/07/10 09:59:31;;;;;;;6.03;1.30;;;;;;;27.08;57.10;-18752.69;5053060;28;20094;-75
2023/07/10 10:02:14;;;;;;;2.53;1.00;;;;;;;26.97;51.63;-18749.84;5084022;28;20298;-77
2023/07/10 10:04:42;;;;;;;5.22;1.60;;;;;;;26.97;53.31;-18749.84;5081294;28;20052;-76
2023/07/10 10:07:14;;;;;;;3.45;1.05;;;;;;;27.21;55.23;-18756.06;5077705;28;20333;-77
2023/07/10 10:09:42;;;;;;;4.57;1.27;;;;;;;27.34;53.44;-18759.44;5085427;28;20091;-76
2023/07/10 10:12:24;;;;;;;4.95;1.25;;;;;;;27.11;50.05;-18753.47;5072132;28;20127;-76
2023/07/10 10:14:59;;;;;;;3.80;0.90;;;;;;;27.03;47.84;-18751.31;5062743;28;20186;-76
2023/07/10 10:17:31;;;;;;;4.65;1.38;;;;;;;27.13;52.03;-18754.03;5081951;28;20035;-76
2023/07/10 10:20:17;;;;;;;7.00;1.52;;;;;;;27.40;51.05;-18761.19;5081546;28;20037;-76
2023/07/10 10:22:42;;;;;;;4.68;1.02;;;;;;;27.43;49.26;-18762.00;5074512;28;20032;-76
2023/07/10 10:25:15;;;;;;;3.88;1.30;;;;;;;27.46;50.54;-18762.66;5084168;28;20043;-76
2023/07/10 10:28:01;;;;;;;6.97;1.83;;;;;;;27.55;53.30;-18765.09;5076337;28;20133;-76
2023/07/10 10:30:41;;;;;;;4.65;1.20;;;;;;;27.49;51.27;-18763.47;5072546;28;20070;-76
2023/07/10 10:33:29;;;;;;;4.70;1.55;;;;;;;27.46;49.65;-18762.66;5078778;28;20144;-76
2023/07/10 10:36:00;;;;;;;3.63;1.30;;;;;;;27.28;52.46;-18757.81;5035221;28;20048;-76
2023/07/10 10:38:38;;;;;;;3.90;1.40;;;;;;;27.27;50.29;-18757.66;5078645;28;20068;-76
2023/07/10 10:41:10;;;;;;;9.30;1.60;;;;;;;27.33;53.06;-18759.16;5077037;28;20078;-76
2023/07/10 10:43:50;;;;;;;5.43;1.70;;;;;;;27.43;53.46;-18762.00;5067229;28;20138;-76
2023/07/10 10:46:41;;;;;;;5.15;1.23;;;;;;;27.52;55.21;-18764.28;5082685;28;20037;-76
2023/07/10 10:49:42;;;;;;;4.05;1.30;;;;;;;27.53;54.49;-18764.56;5034894;28;20041;-76
2023/07/10 10:52:22;;;;;;;4.70;1.20;;;;;;;27.83;56.52;-18772.38;5040931;28;20075;-76
2023/07/10 10:55:06;;;;;;;3.75;1.33;;;;;;;27.88;51.16;-18773.88;5057219;28;20135;-76
2023/07/10 10:57:43;;;;;;;3.85;1.40;;;;;;;27.87;53.21;-18773.59;5082744;28;20101;-76
2023/07/10 11:00:36;;;;;;;5.65;1.50;;;;;;;27.90;50.71;-18774.41;5072720;28;20044;-76
2023/07/10 11:03:17;;;;;;;3.53;1.20;;;;;;;27.67;52.26;-18768.19;5055241;28;20350;-76
2023/07/10 11:05:47;;;;;;;5.30;1.20;;;;;;;27.62;51.56;-18766.84;5071801;28;20131;-77
2023/07/10 11:08:22;;;;;;;6.00;1.40;;;;;;;27.85;52.00;-18772.94;5071997;28;20040;-76
2023/07/10 11:10:51;;;;;;;4.80;1.30;;;;;;;27.78;50.09;-18771.16;5073998;28;20073;-76
2023/07/10 11:13:49;;;;;;;5.35;1.60;;;;;;;27.71;48.80;-18769.16;5070655;28;20046;-76
2023/07/10 11:16:15;;;;;;;4.90;1.70;;;;;;;27.78;49.77;-18771.16;5027167;28;20045;-76
2023/07/10 11:18:41;;;;;;;8.30;1.63;;;;;;;27.90;51.44;-18774.28;5081669;28;20051;-76